createdAt,value
2023-05-09T00:00:16.149Z,40.45
2023-05-09T00:01:16.145Z,40.43
2023-05-09T00:02:16.265Z,40.47
2023-05-09T00:03:16.284Z,40.44
2023-05-09T00:04:16.229Z,40.43
2023-05-09T00:05:16.568Z,40.45
2023-05-09T00:06:16.317Z,40.38
2023-05-09T00:07:16.213Z,40.41
2023-05-09T00:08:16.259Z,40.38
2023-05-09T00:09:16.255Z,40.39
2023-05-09T00:10:16.313Z,40.38
2023-05-09T00:11:16.321Z,40.40
2023-05-09T00:12:16.334Z,40.36
2023-05-09T00:13:16.396Z,40.35
2023-05-09T00:14:16.337Z,40.34
2023-05-09T00:15:16.478Z,40.34
2023-05-09T00:16:16.439Z,40.35
2023-05-09T00:17:16.398Z,40.32
2023-05-09T00:18:16.458Z,40.32
2023-05-09T00:19:16.452Z,40.32
2023-05-09T00:20:16.478Z,40.34
2023-05-09T00:21:16.494Z,40.28
2023-05-09T00:22:16.584Z,40.34
2023-05-09T00:23:16.499Z,40.32
2023-05-09T00:24:16.499Z,40.35
2023-05-09T00:25:16.783Z,40.30
2023-05-09T00:26:16.553Z,40.30
2023-05-09T00:27:18.353Z,40.32
2023-05-09T00:28:16.605Z,40.30
2023-05-09T00:29:16.586Z,40.29
2023-05-09T00:30:16.582Z,40.31
2023-05-09T00:31:16.645Z,40.31
2023-05-09T00:32:16.789Z,40.29
2023-05-09T00:33:16.652Z,40.28
2023-05-09T00:34:16.650Z,40.25
2023-05-09T00:35:16.825Z,40.26
2023-05-09T00:36:16.681Z,40.30
2023-05-09T00:37:16.739Z,40.32
2023-05-09T00:38:16.846Z,40.32
2023-05-09T00:39:16.742Z,40.28
2023-05-09T00:40:16.799Z,40.31
2023-05-09T00:41:16.793Z,40.28
2023-05-09T00:42:16.799Z,40.26
2023-05-09T00:43:16.845Z,40.22
2023-05-09T00:44:16.848Z,40.26
2023-05-09T00:45:16.909Z,40.23
2023-05-09T00:46:16.957Z,40.20
2023-05-09T00:47:16.898Z,40.23
2023-05-09T00:48:16.974Z,40.23
2023-05-09T00:49:16.948Z,40.24
2023-05-09T00:50:16.953Z,40.22
2023-05-09T00:51:16.997Z,40.22
2023-05-09T00:52:16.992Z,40.18
2023-05-09T00:53:17.016Z,40.29
2023-05-09T00:54:17.139Z,40.22
2023-05-09T00:55:17.046Z,40.19
2023-05-09T00:56:17.077Z,40.17
2023-05-09T00:57:17.093Z,40.21
2023-05-09T00:58:17.120Z,40.21
2023-05-09T00:59:17.631Z,40.17
2023-05-09T01:00:17.153Z,40.19
2023-05-09T01:01:17.206Z,40.18
2023-05-09T01:02:17.223Z,40.20
2023-05-09T01:03:17.309Z,40.22
2023-05-09T01:04:17.230Z,40.17
2023-05-09T01:05:17.410Z,40.18
2023-05-09T01:06:17.276Z,40.20
2023-05-09T01:07:17.325Z,40.18
2023-05-09T01:08:17.320Z,40.14
2023-05-09T01:09:17.329Z,40.15
2023-05-09T01:10:17.447Z,40.16
2023-05-09T01:11:17.358Z,40.19
2023-05-09T01:12:17.424Z,40.14
2023-05-09T01:13:17.528Z,40.15
2023-05-09T01:14:17.482Z,40.18
2023-05-09T01:15:17.455Z,40.19
2023-05-09T01:16:17.581Z,40.18
2023-05-09T01:17:17.519Z,40.20
2023-05-09T01:18:17.553Z,40.19
2023-05-09T01:19:17.539Z,40.13
2023-05-09T01:20:17.573Z,40.14
2023-05-09T01:21:17.611Z,40.14
2023-05-09T01:22:17.593Z,40.11
2023-05-09T01:23:17.636Z,40.10
2023-05-09T01:24:17.641Z,40.12
2023-05-09T01:25:17.635Z,40.10
2023-05-09T01:26:17.732Z,40.12
2023-05-09T01:27:17.673Z,40.15
2023-05-09T01:28:17.677Z,40.15
2023-05-09T01:29:17.701Z,40.12
2023-05-09T01:30:17.721Z,40.06
2023-05-09T01:31:17.792Z,40.11
2023-05-09T01:32:17.733Z,40.10
2023-05-09T01:33:17.766Z,40.14
2023-05-09T01:34:17.774Z,40.08
2023-05-09T01:35:17.772Z,40.07
2023-05-09T01:36:17.785Z,40.11
2023-05-09T01:37:17.809Z,40.10
2023-05-09T01:38:17.820Z,40.00
2023-05-09T01:39:17.841Z,40.05
2023-05-09T01:40:17.829Z,40.06
2023-05-09T01:41:17.862Z,40.05
2023-05-09T01:42:17.954Z,40.04
2023-05-09T01:43:17.891Z,40.07
2023-05-09T01:44:17.938Z,40.07
2023-05-09T01:45:18.048Z,40.04
2023-05-09T01:46:17.951Z,40.01
2023-05-09T01:47:17.935Z,40.04
2023-05-09T01:48:17.975Z,40.07
2023-05-09T01:49:17.992Z,40.05
2023-05-09T01:50:18.032Z,40.04
2023-05-09T01:51:18.017Z,40.07
2023-05-09T01:52:18.048Z,40.01
2023-05-09T01:53:18.065Z,40.02
2023-05-09T01:54:18.049Z,40.02
2023-05-09T01:55:18.086Z,39.98
2023-05-09T01:56:18.088Z,40.05
2023-05-09T01:57:18.108Z,40.00
2023-05-09T01:58:18.249Z,40.01
2023-05-09T01:59:18.141Z,40.03
2023-05-09T02:00:18.176Z,40.03
2023-05-09T02:01:18.236Z,40.00
2023-05-09T02:02:18.227Z,39.99
2023-05-09T02:03:18.247Z,40.00
2023-05-09T02:04:18.244Z,39.98
2023-05-09T02:05:18.267Z,40.00
2023-05-09T02:06:18.274Z,39.97
2023-05-09T02:07:18.262Z,39.97
2023-05-09T02:08:18.258Z,39.99
2023-05-09T02:09:18.284Z,39.98
2023-05-09T02:10:18.278Z,40.02
2023-05-09T02:11:18.336Z,40.04
2023-05-09T02:12:18.372Z,40.03
2023-05-09T02:13:18.494Z,39.99
2023-05-09T02:14:18.488Z,39.99
2023-05-09T02:15:18.432Z,40.00
2023-05-09T02:16:20.040Z,40.00
2023-05-09T02:17:18.444Z,39.95
2023-05-09T02:18:18.465Z,39.98
2023-05-09T02:19:18.487Z,40.03
2023-05-09T02:20:18.494Z,40.01
2023-05-09T02:21:18.488Z,39.98
2023-05-09T02:22:18.515Z,39.94
2023-05-09T02:23:18.588Z,40.00
2023-05-09T02:24:18.578Z,39.95
2023-05-09T02:25:18.599Z,39.94
2023-05-09T02:26:18.619Z,39.92
2023-05-09T02:27:18.642Z,39.94
2023-05-09T02:28:18.647Z,39.95
2023-05-09T02:29:18.680Z,39.93
2023-05-09T02:30:18.811Z,39.89
2023-05-09T02:31:18.725Z,39.93
2023-05-09T02:32:18.736Z,39.96
2023-05-09T02:33:18.758Z,39.93
2023-05-09T02:34:18.784Z,39.95
2023-05-09T02:35:18.824Z,39.90
2023-05-09T02:36:18.809Z,39.92
2023-05-09T02:37:18.831Z,39.93
2023-05-09T02:38:18.853Z,39.92
2023-05-09T02:39:18.887Z,39.90
2023-05-09T02:40:18.904Z,39.87
2023-05-09T02:41:18.939Z,39.86
2023-05-09T02:42:18.912Z,39.87
2023-05-09T02:43:18.957Z,39.91
2023-05-09T02:44:18.962Z,39.86
2023-05-09T02:45:19.016Z,39.89
2023-05-09T02:46:19.150Z,39.86
2023-05-09T02:47:19.010Z,39.91
2023-05-09T02:48:19.053Z,39.91
2023-05-09T02:49:31.466Z,39.89
2023-05-09T02:50:20.063Z,39.88
2023-05-09T02:51:19.061Z,39.88
2023-05-09T02:52:19.061Z,39.84
2023-05-09T02:53:19.070Z,39.86
2023-05-09T02:54:19.019Z,39.85
2023-05-09T02:55:19.040Z,39.87
2023-05-09T02:56:18.988Z,39.90
2023-05-09T02:57:19.020Z,39.84
2023-05-09T02:58:19.391Z,39.84
2023-05-09T02:59:18.997Z,39.85
2023-05-09T03:00:18.959Z,39.86
2023-05-09T03:01:19.039Z,39.85
2023-05-09T03:02:19.156Z,39.89
2023-05-09T03:03:19.105Z,39.87
2023-05-09T03:04:18.932Z,39.79
2023-05-09T03:05:18.978Z,39.83
2023-05-09T03:06:18.972Z,39.88
2023-05-09T03:07:18.938Z,39.84
2023-05-09T03:08:18.937Z,39.82
2023-05-09T03:09:18.979Z,39.82
2023-05-09T03:10:19.026Z,39.82
2023-05-09T03:11:19.000Z,39.81
2023-05-09T03:12:19.027Z,39.82
2023-05-09T03:13:19.111Z,39.79
2023-05-09T03:14:19.095Z,39.80
2023-05-09T03:15:19.137Z,39.82
2023-05-09T03:16:19.198Z,39.81
2023-05-09T03:17:19.153Z,39.79
2023-05-09T03:18:19.282Z,39.77
2023-05-09T03:19:19.216Z,39.86
2023-05-09T03:20:19.243Z,39.79
2023-05-09T03:21:19.262Z,39.78
2023-05-09T03:22:19.293Z,39.82
2023-05-09T03:23:19.324Z,39.79
2023-05-09T03:24:19.323Z,39.77
2023-05-09T03:25:19.369Z,39.80
2023-05-09T03:26:19.365Z,39.78
2023-05-09T03:27:19.407Z,39.77
2023-05-09T03:28:19.445Z,39.79
2023-05-09T03:29:19.440Z,39.81
2023-05-09T03:30:19.466Z,39.76
2023-05-09T03:31:19.510Z,39.78
2023-05-09T03:32:19.543Z,39.79
2023-05-09T03:33:19.542Z,39.79
2023-05-09T03:34:19.667Z,39.81
2023-05-09T03:35:19.604Z,39.76
2023-05-09T03:36:19.648Z,39.74
2023-05-09T03:37:19.667Z,39.78
2023-05-09T03:38:19.712Z,39.76
2023-05-09T03:39:19.709Z,39.74
2023-05-09T03:40:19.725Z,39.77
2023-05-09T03:41:19.744Z,39.78
2023-05-09T03:42:19.791Z,39.77
2023-05-09T03:43:19.818Z,39.73
2023-05-09T03:44:19.850Z,39.71
2023-05-09T03:45:19.850Z,39.75
2023-05-09T03:46:19.882Z,39.72
2023-05-09T03:47:19.869Z,39.80
2023-05-09T03:48:19.890Z,39.73
2023-05-09T03:49:19.944Z,39.73
2023-05-09T03:50:20.074Z,39.76
2023-05-09T03:51:19.997Z,39.67
2023-05-09T03:52:20.025Z,39.71
2023-05-09T03:53:20.077Z,39.71
2023-05-09T03:54:20.042Z,39.71
2023-05-09T03:55:20.093Z,39.71
2023-05-09T03:56:20.107Z,39.69
2023-05-09T03:57:20.121Z,39.70
2023-05-09T03:58:20.187Z,39.74
2023-05-09T03:59:20.213Z,39.65
2023-05-09T04:00:20.215Z,39.71
2023-05-09T04:01:20.224Z,39.70
2023-05-09T04:02:20.335Z,39.66
2023-05-09T04:03:20.334Z,39.70
2023-05-09T04:04:20.322Z,39.71
2023-05-09T04:05:20.326Z,39.65
2023-05-09T04:06:20.432Z,39.67
2023-05-09T04:07:20.384Z,39.68
2023-05-09T04:08:20.376Z,39.64
2023-05-09T04:09:20.418Z,39.67
2023-05-09T04:10:20.451Z,39.65
2023-05-09T04:11:20.473Z,39.66
2023-05-09T04:12:20.509Z,39.68
2023-05-09T04:13:20.571Z,39.70
2023-05-09T04:14:20.542Z,39.69
2023-05-09T04:15:20.553Z,39.70
2023-05-09T04:16:20.618Z,39.64
2023-05-09T04:17:20.635Z,39.70
2023-05-09T04:18:20.655Z,39.71
2023-05-09T04:19:20.660Z,39.63
2023-05-09T04:20:20.710Z,39.63
2023-05-09T04:21:20.713Z,39.67
2023-05-09T04:22:20.833Z,39.67
2023-05-09T04:23:20.763Z,39.63
2023-05-09T04:24:20.817Z,39.62
2023-05-09T04:25:20.824Z,39.64
2023-05-09T04:26:20.842Z,39.67
2023-05-09T04:27:20.869Z,39.63
2023-05-09T04:28:20.910Z,39.68
2023-05-09T04:29:20.928Z,39.65
2023-05-09T04:30:20.981Z,39.64
2023-05-09T04:31:20.992Z,39.64
2023-05-09T04:32:21.000Z,39.66
2023-05-09T04:33:21.012Z,39.68
2023-05-09T04:34:21.006Z,39.58
2023-05-09T04:35:21.349Z,39.63
2023-05-09T04:36:21.072Z,39.64
2023-05-09T04:37:21.087Z,39.64
2023-05-09T04:38:21.240Z,39.59
2023-05-09T04:39:21.148Z,39.62
2023-05-09T04:40:21.184Z,39.59
2023-05-09T04:41:21.189Z,39.63
2023-05-09T04:42:21.234Z,39.60
2023-05-09T04:43:21.238Z,39.58
2023-05-09T04:44:21.265Z,39.60
2023-05-09T04:45:21.273Z,39.56
2023-05-09T04:46:23.133Z,39.57
2023-05-09T04:47:21.302Z,39.61
2023-05-09T04:48:21.329Z,39.60
2023-05-09T04:49:21.303Z,39.59
2023-05-09T04:50:21.296Z,39.62
2023-05-09T04:51:21.307Z,39.55
2023-05-09T04:52:21.296Z,39.56
2023-05-09T04:53:21.256Z,39.55
2023-05-09T04:54:21.373Z,39.57
2023-05-09T04:55:21.283Z,39.57
2023-05-09T04:56:21.250Z,39.50
2023-05-09T04:57:21.227Z,39.51
2023-05-09T04:58:21.244Z,39.58
2023-05-09T04:59:21.235Z,39.55
2023-05-09T05:00:21.272Z,39.55
2023-05-09T05:01:21.291Z,39.55
2023-05-09T05:02:21.248Z,39.56
2023-05-09T05:03:21.247Z,39.56
2023-05-09T05:04:21.273Z,39.52
2023-05-09T05:05:24.744Z,39.55
2023-05-09T05:06:21.186Z,39.52
2023-05-09T05:07:21.183Z,39.49
2023-05-09T05:08:21.154Z,39.53
2023-05-09T05:09:21.153Z,39.52
2023-05-09T05:10:21.275Z,39.53
2023-05-09T05:11:21.170Z,39.51
2023-05-09T05:12:21.152Z,39.49
2023-05-09T05:13:21.276Z,39.47
2023-05-09T05:14:21.156Z,39.53
2023-05-09T05:15:21.128Z,39.51
2023-05-09T05:16:21.169Z,39.49
2023-05-09T05:17:21.137Z,39.43
2023-05-09T05:18:21.100Z,39.48
2023-05-09T05:19:21.122Z,39.46
2023-05-09T05:20:21.114Z,39.45
2023-05-09T05:21:21.175Z,39.43
2023-05-09T05:22:21.089Z,39.45
2023-05-09T05:23:21.058Z,39.46
2023-05-09T05:24:21.097Z,39.37
2023-05-09T05:25:21.068Z,39.39
2023-05-09T05:26:21.144Z,39.46
2023-05-09T05:27:21.060Z,39.49
2023-05-09T05:28:21.024Z,39.42
2023-05-09T05:29:21.050Z,39.39
2023-05-09T05:30:21.046Z,39.48
2023-05-09T05:31:21.031Z,39.41
2023-05-09T05:32:21.027Z,39.43
2023-05-09T05:33:20.998Z,39.40
2023-05-09T05:34:21.002Z,39.39
2023-05-09T05:35:21.007Z,39.44
2023-05-09T05:36:21.000Z,39.44
2023-05-09T05:37:20.999Z,39.48
2023-05-09T05:38:20.980Z,39.64
2023-05-09T05:39:21.427Z,39.64
2023-05-09T05:40:20.942Z,39.77
2023-05-09T05:41:20.977Z,39.91
2023-05-09T05:42:21.060Z,39.91
2023-05-09T05:43:20.992Z,39.78
2023-05-09T05:44:21.462Z,39.92
2023-05-09T05:45:21.012Z,39.97
2023-05-09T05:46:21.078Z,40.07
2023-05-09T05:47:21.050Z,40.36
2023-05-09T05:48:21.066Z,40.41
2023-05-09T05:49:21.144Z,40.64
2023-05-09T05:50:21.183Z,41.24
2023-05-09T05:51:21.168Z,40.83
2023-05-09T05:52:21.205Z,41.38
2023-05-09T05:53:21.267Z,41.78
2023-05-09T05:54:21.446Z,41.68
2023-05-09T05:55:21.345Z,41.49
2023-05-09T05:56:21.370Z,42.09
2023-05-09T05:57:21.415Z,42.48
2023-05-09T05:58:21.512Z,42.55
2023-05-09T05:59:21.455Z,43.26
2023-05-09T06:00:21.510Z,42.91
2023-05-09T06:01:21.541Z,43.16
2023-05-09T06:02:21.555Z,43.45
2023-05-09T06:03:21.672Z,43.72
2023-05-09T06:04:21.699Z,43.84
2023-05-09T06:05:21.642Z,43.92
2023-05-09T06:06:21.644Z,44.07
2023-05-09T06:07:21.673Z,44.23
2023-05-09T06:08:21.671Z,44.37
2023-05-09T06:09:21.730Z,44.53
2023-05-09T06:10:21.715Z,44.55
2023-05-09T06:11:21.738Z,44.65
2023-05-09T06:12:21.710Z,44.70
2023-05-09T06:13:21.835Z,44.77
2023-05-09T06:14:21.827Z,44.79
2023-05-09T06:15:21.734Z,44.84
2023-05-09T06:16:21.803Z,44.98
2023-05-09T06:17:22.065Z,44.97
2023-05-09T06:18:21.760Z,45.10
2023-05-09T06:19:21.701Z,45.14
2023-05-09T06:20:21.704Z,45.22
2023-05-09T06:21:21.720Z,45.21
2023-05-09T06:22:21.726Z,45.33
2023-05-09T06:23:21.744Z,45.48
2023-05-09T06:24:34.414Z,45.55
2023-05-09T06:25:22.776Z,45.56
2023-05-09T06:26:21.753Z,45.49
2023-05-09T06:27:21.707Z,45.63
2023-05-09T06:28:21.735Z,45.69
2023-05-09T06:29:21.717Z,45.77
2023-05-09T06:30:26.120Z,45.86
2023-05-09T06:31:24.220Z,45.92
2023-05-09T06:32:21.695Z,45.94
2023-05-09T06:33:21.694Z,46.02
2023-05-09T06:34:21.663Z,46.10
2023-05-09T06:35:21.806Z,46.12
2023-05-09T06:36:21.692Z,46.23
2023-05-09T06:37:21.689Z,46.27
2023-05-09T06:38:21.655Z,46.31
2023-05-09T06:39:21.981Z,46.36
2023-05-09T06:40:21.651Z,46.38
2023-05-09T06:41:21.647Z,46.41
2023-05-09T06:42:21.656Z,46.47
2023-05-09T06:43:21.633Z,46.54
2023-05-09T06:44:21.642Z,46.52
2023-05-09T06:45:21.895Z,46.56
2023-05-09T06:46:21.753Z,46.55
2023-05-09T06:47:21.594Z,46.82
2023-05-09T06:48:21.639Z,46.20
2023-05-09T06:49:21.973Z,46.21
2023-05-09T06:50:21.576Z,46.09
2023-05-09T06:51:21.602Z,45.14
2023-05-09T06:52:21.586Z,45.15
2023-05-09T06:53:21.586Z,45.50
2023-05-09T06:54:21.547Z,45.43
2023-05-09T06:55:21.551Z,45.68
2023-05-09T06:56:21.539Z,45.63
2023-05-09T06:57:21.561Z,45.74
2023-05-09T06:58:21.541Z,45.59
2023-05-09T06:59:21.545Z,45.69
2023-05-09T07:00:21.564Z,45.70
2023-05-09T07:01:21.637Z,45.67
2023-05-09T07:02:21.742Z,45.76
2023-05-09T07:03:21.670Z,45.79
2023-05-09T07:04:21.784Z,45.81
2023-05-09T07:05:21.901Z,45.81
2023-05-09T07:06:21.883Z,45.75
2023-05-09T07:07:21.932Z,45.77
2023-05-09T07:08:21.971Z,45.75
2023-05-09T07:09:22.077Z,45.47
2023-05-09T07:10:22.105Z,44.44
2023-05-09T07:11:22.165Z,43.91
2023-05-09T07:12:22.209Z,43.75
2023-05-09T07:13:22.279Z,43.74
2023-05-09T07:14:22.309Z,43.57
2023-05-09T07:15:32.978Z,43.65
2023-05-09T07:16:23.384Z,43.74
2023-05-09T07:17:23.911Z,43.58
2023-05-09T07:18:22.352Z,43.46
2023-05-09T07:19:22.282Z,43.10
2023-05-09T07:20:22.284Z,42.94
2023-05-09T07:21:22.258Z,42.89
2023-05-09T07:22:22.284Z,42.91
2023-05-09T07:23:22.264Z,42.77
2023-05-09T07:24:22.248Z,42.91
2023-05-09T07:25:22.240Z,43.06
2023-05-09T07:26:22.244Z,42.75
2023-05-09T07:27:22.209Z,42.90
2023-05-09T07:28:22.213Z,42.70
2023-05-09T07:29:22.220Z,42.64
2023-05-09T07:30:22.201Z,42.46
2023-05-09T07:31:22.249Z,42.62
2023-05-09T07:32:22.227Z,42.87
2023-05-09T07:33:22.250Z,43.12
2023-05-09T07:34:22.337Z,43.22
2023-05-09T07:35:22.281Z,43.34
2023-05-09T07:36:22.325Z,43.47
2023-05-09T07:37:22.328Z,43.53
2023-05-09T07:38:22.414Z,43.55
2023-05-09T07:39:22.461Z,43.71
2023-05-09T07:40:22.542Z,43.83
2023-05-09T07:41:22.584Z,44.34
2023-05-09T07:42:22.691Z,44.28
2023-05-09T07:43:22.692Z,44.29
2023-05-09T07:44:22.992Z,44.41
2023-05-09T07:45:23.837Z,44.44
2023-05-09T07:46:22.956Z,45.06
2023-05-09T07:47:22.938Z,44.68
2023-05-09T07:48:22.992Z,44.56
2023-05-09T07:49:23.506Z,44.68
2023-05-09T07:50:23.164Z,44.60
2023-05-09T07:51:23.153Z,44.55
2023-05-09T07:52:23.188Z,44.62
2023-05-09T07:53:23.257Z,44.61
2023-05-09T07:54:23.294Z,44.64
2023-05-09T07:55:23.385Z,44.74
2023-05-09T07:56:23.401Z,44.81
2023-05-09T07:57:23.457Z,44.88
2023-05-09T07:58:23.492Z,45.03
2023-05-09T07:59:23.549Z,45.05
2023-05-09T08:00:23.753Z,45.07
2023-05-09T08:01:23.661Z,45.11
2023-05-09T08:02:23.728Z,45.17
2023-05-09T08:03:23.848Z,45.25
2023-05-09T08:04:23.801Z,45.23
2023-05-09T08:05:23.844Z,45.28
2023-05-09T08:06:24.028Z,45.31
2023-05-09T08:07:23.949Z,45.30
2023-05-09T08:08:23.981Z,45.38
2023-05-09T08:09:24.042Z,45.40
2023-05-09T08:10:24.163Z,45.43
2023-05-09T08:11:24.129Z,45.44
2023-05-09T08:12:24.172Z,45.43
2023-05-09T08:13:24.296Z,45.52
2023-05-09T08:14:24.252Z,45.55
2023-05-09T08:15:24.313Z,45.59
2023-05-09T08:16:24.367Z,45.65
2023-05-09T08:17:24.407Z,45.67
2023-05-09T08:18:24.454Z,45.71
2023-05-09T08:19:24.525Z,45.83
2023-05-09T08:20:24.552Z,45.86
2023-05-09T08:21:24.589Z,45.86
2023-05-09T08:22:24.634Z,45.91
2023-05-09T08:23:24.661Z,45.99
2023-05-09T08:24:24.694Z,46.01
2023-05-09T08:25:24.711Z,46.05
2023-05-09T08:26:24.795Z,46.08
2023-05-09T08:27:24.791Z,46.15
2023-05-09T08:28:24.874Z,46.13
2023-05-09T08:29:24.908Z,46.22
2023-05-09T08:30:24.905Z,46.16
2023-05-09T08:31:25.002Z,46.19
2023-05-09T08:32:25.024Z,46.51
